Terminal Aerodrome Forecast
Issued by NWS Aberdeen, SD

Home | Current Version | Previous Version | Text Only | Print | Product List | Glossary On
Versions: 1 2 3 4 5 6 7 8 9 10 11 12 13 14 15 16 17 18 19 20 21 22 23 24 25 26 27 28 29 30 31 32 33 34 35 36 37 38 39 40 41 42
000
FTAK31 PAFA 221739
TAFABR
TAF
PABR 221739Z 2218/2318 24015KT P6SM VCFG FEW005 BKN030 OVC040
     FM222100 24019KT P6SM VCFG SCT005 BKN035 BKN050
     FM230400 22012KT 1SM BR BKN005 OVC025
     FM230900 19011KT P6SM BCFG SCT005 OVC030=

USA.gov is the U.S. government's official web portal to all federal, state and local government web resources and services.